createdAt,value
2023-04-11T00:01:49.699Z,26.50
2023-04-11T00:04:17.416Z,28.73
2023-04-11T00:06:46.411Z,19.90
2023-04-11T00:09:16.844Z,23.13
2023-04-11T00:11:43.878Z,24.38
2023-04-11T00:14:13.203Z,23.77
2023-04-11T00:16:41.621Z,25.25
2023-04-11T00:19:10.925Z,27.92
2023-04-11T00:21:40.278Z,32.03
2023-04-11T00:24:10.329Z,28.08
2023-04-11T00:26:40.268Z,23.77
2023-04-11T00:29:07.036Z,26.92
2023-04-11T00:31:33.901Z,25.55
2023-04-11T00:34:00.774Z,27.63
2023-04-11T00:36:27.814Z,25.25
2023-04-11T00:38:58.582Z,25.80
2023-04-11T00:41:25.885Z,22.13
2023-04-11T00:43:54.483Z,28.15
2023-04-11T00:46:24.241Z,30.42
2023-04-11T00:48:51.354Z,19.88
2023-04-11T00:51:22.334Z,26.70
2023-04-11T00:53:49.237Z,20.80
2023-04-11T00:56:18.674Z,26.50
2023-04-11T00:58:50.678Z,23.23
2023-04-11T01:01:20.078Z,27.38
2023-04-11T01:03:50.324Z,22.88
2023-04-11T01:06:19.789Z,19.23
2023-04-11T01:08:47.760Z,25.60
2023-04-11T01:11:18.134Z,22.60
2023-04-11T01:13:45.091Z,25.40
2023-04-11T01:16:15.288Z,18.50
2023-04-11T01:18:42.270Z,26.38
2023-04-11T01:21:11.045Z,26.63
2023-04-11T01:23:37.819Z,26.17
2023-04-11T01:26:04.804Z,21.75
2023-04-11T01:28:31.484Z,26.98
2023-04-11T01:30:58.291Z,27.48
2023-04-11T01:33:28.110Z,26.10
2023-04-11T01:35:54.910Z,24.27
2023-04-11T01:38:21.680Z,27.35
2023-04-11T01:40:48.414Z,24.63
2023-04-11T01:43:15.035Z,22.48
2023-04-11T01:45:41.762Z,27.00
2023-04-11T01:48:09.099Z,28.42
2023-04-11T01:50:35.946Z,23.73
2023-04-11T01:53:02.872Z,38.83
2023-04-11T01:55:29.614Z,30.63
2023-04-11T01:57:56.547Z,22.98
2023-04-11T02:00:25.434Z,22.42
2023-04-11T02:02:54.838Z,20.70
2023-04-11T02:05:22.186Z,26.98
2023-04-11T02:07:48.888Z,22.67
2023-04-11T02:10:15.660Z,28.67
2023-04-11T02:12:42.509Z,21.67
2023-04-11T02:15:09.553Z,27.25
2023-04-11T02:17:37.089Z,27.42
2023-04-11T02:20:07.275Z,23.67
2023-04-11T02:22:36.659Z,25.88
2023-04-11T02:25:03.478Z,21.67
2023-04-11T02:27:31.516Z,21.83
2023-04-11T02:30:00.949Z,23.88
2023-04-11T02:32:27.838Z,22.08
2023-04-11T02:34:54.668Z,23.83
2023-04-11T02:37:21.857Z,15.15
2023-04-11T02:39:48.450Z,16.45
2023-04-11T02:42:15.471Z,20.35
2023-04-11T02:44:44.289Z,22.10
2023-04-11T02:47:10.948Z,25.02
2023-04-11T02:49:37.906Z,29.83
2023-04-11T02:52:04.795Z,19.38
2023-04-11T02:54:31.512Z,24.33
2023-04-11T02:56:58.338Z,19.80
2023-04-11T02:59:25.134Z,20.35
2023-04-11T03:01:58.202Z,22.88
2023-04-11T03:04:25.244Z,22.73
2023-04-11T03:06:51.887Z,20.77
2023-04-11T03:09:18.991Z,17.55
2023-04-11T03:11:48.052Z,13.95
2023-04-11T03:14:14.730Z,15.50
2023-04-11T03:16:41.423Z,18.70
2023-04-11T03:19:08.181Z,9.02
2023-04-11T03:21:37.099Z,18.83
2023-04-11T03:24:04.034Z,14.35
2023-04-11T03:26:31.098Z,16.00
2023-04-11T03:29:02.631Z,10.60
2023-04-11T03:31:30.533Z,13.15
2023-04-11T03:33:59.291Z,14.25
2023-04-11T03:36:29.607Z,13.40
2023-04-11T03:38:56.511Z,18.35
2023-04-11T03:41:23.435Z,8.98
2023-04-11T03:43:52.558Z,14.55
2023-04-11T03:46:19.236Z,9.80
2023-04-11T03:48:48.246Z,13.68
2023-04-11T03:51:15.097Z,13.20
2023-04-11T03:53:44.043Z,9.25
2023-04-11T03:56:13.254Z,12.48
2023-04-11T03:58:42.878Z,15.52
2023-04-11T04:01:09.627Z,13.05
2023-04-11T04:03:36.940Z,12.15
2023-04-11T04:06:04.175Z,15.95
2023-04-11T04:08:31.096Z,12.38
2023-04-11T04:10:58.037Z,17.65
2023-04-11T04:13:27.548Z,8.07
2023-04-11T04:15:54.541Z,10.50
2023-04-11T04:18:21.373Z,13.10
2023-04-11T04:20:50.362Z,13.80
2023-04-11T04:23:18.272Z,19.85
2023-04-11T04:25:51.174Z,14.02
2023-04-11T04:28:22.674Z,12.57
2023-04-11T04:30:54.521Z,15.82
2023-04-11T04:33:21.701Z,13.40
2023-04-11T04:35:48.532Z,15.35
2023-04-11T04:38:18.132Z,11.88
2023-04-11T04:40:45.238Z,13.23
2023-04-11T04:43:18.537Z,8.05
2023-04-11T04:45:45.917Z,12.65
2023-04-11T04:48:18.184Z,11.00
2023-04-11T04:50:49.139Z,11.73
2023-04-11T04:53:23.284Z,11.52
2023-04-11T04:55:50.141Z,10.05
2023-04-11T04:58:16.977Z,10.30
2023-04-11T05:00:44.085Z,22.52
2023-04-11T05:03:11.147Z,7.28
2023-04-11T05:05:38.207Z,9.70
2023-04-11T05:08:05.095Z,8.05
2023-04-11T05:10:31.986Z,16.90
2023-04-11T05:12:59.120Z,8.50
2023-04-11T05:15:26.022Z,12.75
2023-04-11T05:17:52.951Z,15.00
2023-04-11T05:20:20.049Z,12.50
2023-04-11T05:22:50.699Z,9.05
2023-04-11T05:25:20.234Z,10.85
2023-04-11T05:27:50.364Z,8.52
2023-04-11T05:30:18.210Z,11.82
2023-04-11T05:32:47.994Z,12.05
2023-04-11T05:35:47.434Z,11.23
2023-04-11T05:38:15.502Z,9.45
2023-04-11T05:40:58.460Z,7.00
2023-04-11T05:43:27.929Z,12.50
2023-04-11T05:45:57.571Z,11.48
2023-04-11T05:48:26.625Z,9.43
2023-04-11T05:50:59.223Z,8.98
2023-04-11T05:53:26.306Z,13.38
2023-04-11T05:55:55.881Z,15.45
2023-04-11T05:58:24.892Z,13.30
2023-04-11T06:00:51.781Z,11.23
2023-04-11T06:03:18.649Z,8.07
2023-04-11T06:05:47.924Z,12.45
2023-04-11T06:08:14.631Z,10.77
2023-04-11T06:10:46.385Z,15.00
2023-04-11T06:13:13.199Z,13.65
2023-04-11T06:15:40.345Z,16.20
2023-04-11T06:18:09.475Z,14.32
2023-04-11T06:20:36.266Z,14.98
2023-04-11T06:23:04.289Z,14.93
2023-04-11T06:25:34.573Z,14.60
2023-04-11T06:28:02.273Z,12.40
2023-04-11T06:30:29.518Z,14.60
2023-04-11T06:33:04.768Z,10.27
2023-04-11T06:35:45.997Z,13.98
2023-04-11T06:38:18.246Z,14.30
2023-04-11T06:41:02.655Z,15.23
2023-04-11T06:43:29.594Z,14.55
2023-04-11T06:45:56.409Z,13.50
2023-04-11T06:48:25.725Z,10.43
2023-04-11T06:50:54.989Z,12.20
2023-04-11T06:53:21.921Z,11.30
2023-04-11T06:55:51.609Z,12.60
2023-04-11T06:58:18.225Z,10.77
2023-04-11T07:00:45.240Z,15.05
2023-04-11T07:03:12.431Z,11.60
2023-04-11T07:05:41.645Z,10.65
2023-04-11T07:08:11.154Z,12.23
2023-04-11T07:10:37.869Z,14.13
2023-04-11T07:13:07.103Z,12.65
2023-04-11T07:15:34.116Z,13.50
2023-04-11T07:18:04.410Z,12.48
2023-04-11T07:20:34.702Z,15.45
2023-04-11T07:23:01.660Z,10.20
2023-04-11T07:25:31.061Z,14.18
2023-04-11T07:30:57.952Z,10.40
2023-04-11T07:34:29.540Z,12.00
2023-04-11T07:37:07.178Z,16.33
2023-04-11T07:39:34.235Z,14.23
2023-04-11T07:42:03.871Z,8.35
2023-04-11T07:44:30.736Z,9.75
2023-04-11T07:46:57.649Z,13.85
2023-04-11T07:49:24.581Z,13.02
2023-04-11T07:51:53.852Z,10.93
2023-04-11T07:54:20.870Z,7.80
2023-04-11T07:56:52.803Z,10.88
2023-04-11T07:59:19.618Z,15.05
2023-04-11T08:01:48.656Z,12.38
2023-04-11T08:04:15.958Z,7.35
2023-04-11T08:06:47.020Z,12.95
2023-04-11T08:09:16.949Z,11.45
2023-04-11T08:11:57.318Z,8.95
2023-04-11T08:14:56.866Z,8.18
2023-04-11T08:17:59.716Z,12.48
2023-04-11T08:20:31.229Z,12.38
2023-04-11T08:23:12.167Z,10.85
2023-04-11T08:26:15.658Z,10.63
2023-04-11T08:29:12.927Z,10.48
2023-04-11T08:31:44.748Z,9.50
2023-04-11T08:34:12.521Z,5.65
2023-04-11T08:36:42.172Z,8.63
2023-04-11T08:39:09.103Z,6.57
2023-04-11T08:41:36.954Z,12.77
2023-04-11T08:44:03.957Z,11.73
2023-04-11T08:46:37.601Z,15.18
2023-04-11T08:49:43.310Z,7.45
2023-04-11T08:52:10.100Z,13.50
2023-04-11T08:54:39.595Z,7.93
2023-04-11T08:57:06.411Z,13.88
2023-04-11T08:59:36.415Z,12.48
2023-04-11T09:02:10.986Z,5.25
2023-04-11T09:04:42.504Z,11.85
2023-04-11T09:07:19.303Z,8.93
2023-04-11T09:09:46.636Z,10.70
2023-04-11T09:12:16.367Z,9.35
2023-04-11T09:14:43.370Z,6.05
2023-04-11T09:17:13.909Z,12.68
2023-04-11T09:19:48.318Z,14.15
2023-04-11T09:22:18.632Z,5.93
2023-04-11T09:25:01.873Z,9.82
2023-04-11T09:27:28.790Z,15.88
2023-04-11T09:29:55.732Z,11.63
2023-04-11T09:32:34.107Z,4.82
2023-04-11T09:35:18.657Z,4.63
2023-04-11T09:37:57.623Z,4.53
2023-04-11T09:40:26.604Z,6.95
2023-04-11T09:42:58.356Z,10.63
2023-04-11T09:45:26.094Z,7.22
2023-04-11T09:47:57.084Z,11.82
2023-04-11T09:50:26.685Z,8.18
2023-04-11T09:52:58.516Z,7.40
2023-04-11T09:55:26.522Z,10.65
2023-04-11T09:57:56.436Z,11.13
2023-04-11T10:00:29.062Z,9.30
2023-04-11T10:02:56.734Z,9.45
2023-04-11T10:05:30.508Z,7.10
2023-04-11T10:08:22.530Z,9.05
2023-04-11T10:10:51.146Z,6.63
2023-04-11T10:13:37.720Z,12.15
2023-04-11T10:16:13.367Z,10.15
2023-04-11T10:18:52.258Z,8.23
2023-04-11T10:21:33.488Z,10.90
2023-04-11T10:24:17.490Z,8.77
2023-04-11T10:26:56.571Z,9.88
2023-04-11T10:29:30.191Z,12.27
2023-04-11T10:32:14.994Z,9.88
2023-04-11T10:34:51.044Z,6.78
2023-04-11T10:37:19.439Z,10.40
2023-04-11T10:39:55.483Z,5.50
2023-04-11T10:42:42.891Z,8.25
2023-04-11T10:45:29.927Z,7.63
2023-04-11T10:47:56.759Z,10.60
2023-04-11T10:50:26.553Z,8.68
2023-04-11T10:53:00.252Z,10.80
2023-04-11T10:55:32.821Z,13.48
2023-04-11T10:58:14.085Z,10.40
2023-04-11T11:00:48.094Z,7.20
2023-04-11T11:03:19.530Z,7.30
2023-04-11T11:05:58.279Z,6.88
2023-04-11T11:08:30.682Z,8.55
2023-04-11T11:11:06.910Z,4.95
2023-04-11T11:13:43.151Z,8.73
2023-04-11T11:16:13.863Z,4.78
2023-04-11T11:18:47.746Z,5.32
2023-04-11T11:21:24.598Z,8.43
2023-04-11T11:23:58.709Z,4.85
2023-04-11T11:26:55.668Z,4.28
2023-04-11T11:29:41.630Z,4.60
2023-04-11T11:32:21.319Z,5.35
2023-04-11T11:34:47.911Z,3.35
2023-04-11T11:37:16.990Z,6.53
2023-04-11T11:39:43.935Z,4.72
2023-04-11T11:42:11.031Z,3.75
2023-04-11T11:44:37.837Z,4.85
2023-04-11T11:47:09.418Z,5.22
2023-04-11T11:49:53.338Z,5.88
2023-04-11T11:52:33.123Z,4.50
2023-04-11T11:55:01.447Z,4.57
2023-04-11T11:57:28.116Z,6.93
2023-04-11T11:59:56.281Z,7.38
2023-04-11T12:02:27.426Z,4.75
2023-04-11T12:05:06.020Z,6.20
2023-04-11T12:07:37.321Z,6.70
2023-04-11T12:10:09.108Z,9.25
2023-04-11T12:12:37.757Z,4.40
2023-04-11T12:15:20.050Z,5.35
2023-04-11T12:17:55.114Z,3.50
2023-04-11T12:20:26.794Z,6.22
2023-04-11T12:22:57.186Z,7.18
2023-04-11T12:25:26.248Z,7.90
2023-04-11T12:27:55.609Z,2.63
2023-04-11T12:30:22.732Z,7.80
2023-04-11T12:32:51.872Z,4.70
2023-04-11T12:35:18.645Z,6.40
2023-04-11T12:37:50.450Z,10.00
2023-04-11T12:40:17.195Z,9.68
2023-04-11T12:42:56.161Z,6.82
2023-04-11T12:45:27.211Z,5.75
2023-04-11T12:47:54.354Z,8.43
2023-04-11T12:50:23.394Z,7.50
2023-04-11T12:52:52.598Z,5.18
2023-04-11T12:55:19.401Z,7.28
2023-04-11T12:57:48.355Z,6.57
2023-04-11T13:00:15.712Z,6.20
2023-04-11T13:02:44.967Z,3.85
2023-04-11T13:05:15.343Z,7.57
2023-04-11T13:07:44.851Z,7.85
2023-04-11T13:10:13.670Z,4.85
2023-04-11T13:12:44.745Z,6.32
2023-04-11T13:15:13.537Z,11.07
2023-04-11T13:17:41.563Z,7.68
2023-04-11T13:20:10.418Z,6.07
2023-04-11T13:22:46.479Z,11.13
2023-04-11T13:25:15.651Z,9.52
2023-04-11T13:27:43.265Z,10.40
2023-04-11T13:30:14.253Z,2.95
2023-04-11T13:32:41.033Z,4.88
2023-04-11T13:35:11.087Z,6.95
2023-04-11T13:37:37.751Z,3.80
2023-04-11T13:40:07.074Z,5.00
2023-04-11T13:42:33.689Z,3.50
2023-04-11T13:45:01.631Z,6.30
2023-04-11T13:47:28.325Z,10.50
2023-04-11T13:49:54.927Z,5.40
2023-04-11T13:52:22.928Z,6.60
2023-04-11T13:54:50.069Z,3.25
2023-04-11T13:57:16.593Z,8.25
2023-04-11T13:59:43.228Z,8.35
2023-04-11T14:02:12.678Z,4.25
2023-04-11T14:04:39.479Z,3.78
2023-04-11T14:07:11.367Z,7.05
2023-04-11T14:09:37.937Z,3.33
2023-04-11T14:12:04.593Z,4.35
2023-04-11T14:14:31.447Z,4.53
2023-04-11T14:16:58.006Z,4.38
2023-04-11T14:19:26.943Z,4.43
2023-04-11T14:21:57.852Z,5.55
2023-04-11T14:24:25.061Z,3.83
2023-04-11T14:26:54.225Z,5.43
2023-04-11T14:29:22.925Z,3.92
2023-04-11T14:31:50.269Z,5.53
2023-04-11T14:34:18.558Z,8.15
2023-04-11T14:36:47.551Z,2.05
2023-04-11T14:39:14.678Z,6.00
2023-04-11T14:41:41.447Z,5.88
2023-04-11T14:44:08.029Z,6.15
2023-04-11T14:46:35.678Z,4.32
2023-04-11T14:49:02.484Z,8.70
2023-04-11T14:51:29.784Z,5.63
2023-04-11T14:53:56.809Z,7.85
2023-04-11T14:56:24.487Z,9.23
2023-04-11T14:58:51.733Z,4.80
2023-04-11T15:01:23.176Z,3.35
2023-04-11T15:03:52.254Z,5.45
2023-04-11T15:06:19.001Z,4.57
2023-04-11T15:08:45.855Z,5.55
2023-04-11T15:11:12.520Z,5.57
2023-04-11T15:13:39.121Z,8.70
2023-04-11T15:16:06.620Z,3.55
2023-04-11T15:18:33.359Z,4.22
2023-04-11T15:21:03.456Z,7.53
2023-04-11T15:23:30.535Z,5.20
2023-04-11T15:26:02.708Z,6.53
2023-04-11T15:28:36.586Z,10.30
2023-04-11T15:31:09.332Z,6.18
2023-04-11T15:33:39.097Z,11.93
2023-04-11T15:36:10.677Z,12.00
2023-04-11T15:38:37.309Z,7.07
2023-04-11T15:41:04.184Z,7.20
2023-04-11T15:43:33.550Z,6.88
2023-04-11T15:46:01.690Z,5.95
2023-04-11T15:48:28.236Z,6.82
2023-04-11T15:50:57.189Z,5.90
2023-04-11T15:53:26.555Z,4.57
2023-04-11T15:55:55.538Z,7.00
2023-04-11T15:58:24.478Z,7.60
2023-04-11T16:00:51.301Z,12.23
2023-04-11T16:03:18.201Z,8.85
2023-04-11T16:05:45.689Z,6.45
2023-04-11T16:08:12.294Z,5.20
2023-04-11T16:10:44.857Z,7.93
2023-04-11T16:13:11.469Z,8.27
2023-04-11T16:15:38.151Z,8.77
2023-04-11T16:18:04.946Z,8.50
2023-04-11T16:20:34.719Z,6.05
2023-04-11T16:23:01.927Z,11.27
2023-04-11T16:25:29.201Z,6.82
2023-04-11T16:28:00.850Z,10.00
2023-04-11T16:30:34.135Z,4.57
2023-04-11T16:33:05.717Z,8.63
2023-04-11T16:35:33.696Z,7.15
2023-04-11T16:38:09.408Z,7.80
2023-04-11T16:40:38.068Z,3.22
2023-04-11T16:43:07.017Z,8.60
2023-04-11T16:45:33.881Z,7.35
2023-04-11T16:48:01.525Z,8.15
2023-04-11T16:50:28.329Z,6.57
2023-04-11T16:52:56.129Z,6.28
2023-04-11T16:55:22.829Z,8.00
2023-04-11T16:57:53.197Z,6.88
2023-04-11T17:00:21.193Z,7.53
2023-04-11T17:02:47.997Z,4.80
2023-04-11T17:05:15.632Z,11.73
2023-04-11T17:07:43.791Z,9.13
2023-04-11T17:10:15.543Z,7.50
2023-04-11T17:12:45.899Z,10.30
2023-04-11T17:15:12.825Z,9.30
2023-04-11T17:17:40.032Z,7.68
2023-04-11T17:20:10.317Z,6.25
2023-04-11T17:22:39.455Z,9.48
2023-04-11T17:25:07.760Z,7.93
2023-04-11T17:27:37.921Z,8.43
2023-04-11T17:30:16.091Z,7.57
2023-04-11T17:32:42.964Z,4.15
2023-04-11T17:35:11.438Z,10.48
2023-04-11T17:37:38.738Z,11.48
2023-04-11T17:40:14.785Z,8.18
2023-04-11T17:42:44.704Z,6.80
2023-04-11T17:45:18.331Z,11.18
2023-04-11T17:47:49.558Z,7.65
2023-04-11T17:50:17.477Z,7.13
2023-04-11T17:52:48.590Z,5.93
2023-04-11T17:55:18.786Z,6.57
2023-04-11T17:57:50.511Z,9.55
2023-04-11T18:00:26.408Z,5.32
2023-04-11T18:03:00.960Z,12.13
2023-04-11T18:05:34.202Z,6.28
2023-04-11T18:08:04.935Z,7.30
2023-04-11T18:10:33.351Z,9.70
2023-04-11T18:13:11.772Z,6.95
2023-04-11T18:16:07.977Z,6.93
2023-04-11T18:18:35.173Z,7.47
2023-04-11T18:21:06.708Z,7.15
2023-04-11T18:23:36.576Z,6.10
2023-04-11T18:26:03.278Z,6.55
2023-04-11T18:28:30.494Z,6.28
2023-04-11T18:30:57.152Z,10.23
2023-04-11T18:33:26.130Z,6.22
2023-04-11T18:35:52.884Z,8.45
2023-04-11T18:38:19.517Z,6.53
2023-04-11T18:40:48.862Z,9.98
2023-04-11T18:43:15.768Z,9.45
2023-04-11T18:45:45.311Z,8.85
2023-04-11T18:48:15.596Z,7.85
2023-04-11T18:50:43.048Z,5.70
2023-04-11T18:53:13.821Z,8.15
2023-04-11T18:55:41.313Z,6.72
2023-04-11T18:58:12.775Z,7.18
2023-04-11T19:00:41.926Z,5.03
2023-04-11T19:03:15.402Z,7.72
2023-04-11T19:05:46.636Z,8.23
2023-04-11T19:08:13.622Z,11.27
2023-04-11T19:10:40.360Z,7.70
2023-04-11T19:13:07.219Z,6.18
2023-04-11T19:15:33.884Z,7.82
2023-04-11T19:18:00.833Z,9.77
2023-04-11T19:20:29.609Z,6.90
2023-04-11T19:22:56.294Z,11.35
2023-04-11T19:25:25.165Z,5.45
2023-04-11T19:27:51.965Z,7.03
2023-04-11T19:30:18.506Z,8.82
2023-04-11T19:32:47.478Z,8.55
2023-04-11T19:35:17.180Z,6.10
2023-04-11T19:37:43.768Z,8.68
2023-04-11T19:40:11.262Z,8.32
2023-04-11T19:42:39.221Z,5.82
2023-04-11T19:45:06.798Z,6.03
2023-04-11T19:47:33.497Z,7.45
2023-04-11T19:50:01.107Z,9.05
2023-04-11T19:52:28.560Z,7.55
2023-04-11T19:54:56.601Z,6.50
2023-04-11T19:57:25.637Z,6.60
2023-04-11T19:59:52.337Z,7.38
2023-04-11T20:02:19.023Z,7.75
2023-04-11T20:04:46.010Z,7.22
2023-04-11T20:07:12.719Z,9.82
2023-04-11T20:09:41.698Z,7.90
2023-04-11T20:12:08.329Z,7.95
2023-04-11T20:14:35.018Z,6.80
2023-04-11T20:17:04.610Z,7.05
2023-04-11T20:19:33.140Z,9.00
2023-04-11T20:22:00.971Z,6.05
2023-04-11T20:24:27.812Z,6.43
2023-04-11T20:26:54.617Z,6.78
2023-04-11T20:29:24.688Z,4.70
2023-04-11T20:31:51.452Z,6.95
2023-04-11T20:34:18.047Z,5.50
2023-04-11T20:36:44.679Z,5.82
2023-04-11T20:39:11.299Z,7.30
2023-04-11T20:41:40.584Z,6.45
2023-04-11T20:44:09.748Z,7.35
2023-04-11T20:46:39.667Z,6.88
2023-04-11T20:49:08.776Z,8.77
2023-04-11T20:51:35.826Z,10.80
2023-04-11T20:54:02.868Z,5.43
2023-04-11T20:56:35.458Z,6.63
2023-04-11T20:59:02.876Z,8.25
2023-04-11T21:01:33.721Z,6.50
2023-04-11T21:04:04.316Z,9.88
2023-04-11T21:06:31.863Z,6.97
2023-04-11T21:09:03.660Z,10.68
2023-04-11T21:11:30.762Z,8.70
2023-04-11T21:13:57.766Z,7.30
2023-04-11T21:16:24.823Z,5.35
2023-04-11T21:18:51.527Z,10.30
2023-04-11T21:21:18.223Z,6.95
2023-04-11T21:23:45.030Z,8.43
2023-04-11T21:26:11.938Z,7.07
2023-04-11T21:28:38.878Z,7.28
2023-04-11T21:31:06.071Z,6.35
2023-04-11T21:33:32.805Z,6.05
2023-04-11T21:36:09.477Z,6.85
2023-04-11T21:38:36.633Z,6.78
2023-04-11T21:41:03.469Z,10.00
2023-04-11T21:43:34.972Z,5.60
2023-04-11T21:46:01.698Z,5.13
2023-04-11T21:48:28.449Z,7.90
2023-04-11T21:50:55.533Z,5.78
2023-04-11T21:53:22.555Z,5.65
2023-04-11T21:55:52.010Z,6.85
2023-04-11T21:58:28.602Z,9.13
2023-04-11T22:00:56.656Z,7.15
2023-04-11T22:03:24.191Z,5.60
2023-04-11T22:05:52.560Z,11.38
2023-04-11T22:08:20.357Z,3.30
2023-04-11T22:10:48.370Z,7.93
2023-04-11T22:13:17.703Z,6.15
2023-04-11T22:15:45.567Z,4.80
2023-04-11T22:18:13.074Z,9.13
2023-04-11T22:20:43.605Z,5.38
2023-04-11T22:23:18.022Z,7.28
2023-04-11T22:25:44.780Z,7.78
2023-04-11T22:28:22.416Z,11.45
2023-04-11T22:30:50.622Z,6.20
2023-04-11T22:33:20.233Z,6.78
2023-04-11T22:35:50.813Z,11.73
2023-04-11T22:38:17.700Z,4.80
2023-04-11T22:40:44.500Z,8.60
2023-04-11T22:43:14.263Z,7.05
2023-04-11T22:45:44.227Z,4.28
2023-04-11T22:48:11.177Z,6.25
2023-04-11T22:50:40.762Z,8.98
2023-04-11T22:53:14.236Z,9.20
2023-04-11T22:55:41.146Z,4.53
2023-04-11T22:58:08.131Z,4.03
2023-04-11T23:00:38.610Z,5.20
2023-04-11T23:03:07.441Z,4.95
2023-04-11T23:05:34.389Z,5.72
2023-04-11T23:08:01.142Z,6.63
2023-04-11T23:10:29.020Z,6.18
2023-04-11T23:12:55.917Z,8.80
2023-04-11T23:15:23.124Z,5.95
2023-04-11T23:17:52.446Z,4.82
2023-04-11T23:20:22.260Z,6.00
2023-04-11T23:22:51.551Z,4.63
2023-04-11T23:25:18.501Z,9.50
2023-04-11T23:27:45.949Z,6.25
2023-04-11T23:30:18.116Z,7.43
2023-04-11T23:32:47.445Z,5.78
2023-04-11T23:35:16.947Z,5.85
2023-04-11T23:37:43.959Z,5.90
2023-04-11T23:40:12.469Z,6.32
2023-04-11T23:42:40.141Z,6.97
2023-04-11T23:45:11.158Z,5.22
2023-04-11T23:47:38.630Z,4.72
2023-04-11T23:50:05.855Z,4.97
2023-04-11T23:52:37.732Z,7.30
2023-04-11T23:55:05.170Z,7.88
2023-04-11T23:57:34.698Z,6.22
